createdAt,value
2023-02-09T00:01:40.115Z,18.60
2023-02-09T00:04:10.760Z,20.03
2023-02-09T00:06:39.391Z,22.07
2023-02-09T00:09:08.727Z,19.93
2023-02-09T00:11:54.750Z,21.17
2023-02-09T00:14:23.146Z,21.57
2023-02-09T00:16:51.848Z,19.80
2023-02-09T00:19:22.589Z,21.40
2023-02-09T00:21:50.885Z,19.17
2023-02-09T00:24:19.317Z,20.10
2023-02-09T00:26:47.638Z,19.70
2023-02-09T00:29:17.305Z,21.00
2023-02-09T00:31:45.588Z,19.03
2023-02-09T00:34:15.217Z,18.73
2023-02-09T00:36:44.890Z,20.50
2023-02-09T00:39:13.158Z,18.90
2023-02-09T00:41:58.937Z,20.07
2023-02-09T00:44:27.269Z,17.50
2023-02-09T00:46:56.981Z,23.13
2023-02-09T00:49:25.283Z,21.33
2023-02-09T00:51:55.877Z,20.63
2023-02-09T00:54:24.393Z,16.47
2023-02-09T00:56:52.702Z,20.70
2023-02-09T00:59:20.909Z,23.23
2023-02-09T01:01:49.176Z,18.43
2023-02-09T01:04:17.493Z,21.23
2023-02-09T01:06:48.606Z,21.90
2023-02-09T01:09:19.285Z,22.90
2023-02-09T01:11:47.471Z,19.97
2023-02-09T01:14:15.666Z,18.50
2023-02-09T01:16:44.029Z,22.23
2023-02-09T01:19:13.951Z,19.63
2023-02-09T01:21:43.229Z,20.90
2023-02-09T01:24:15.400Z,19.63
2023-02-09T01:26:45.061Z,23.20
2023-02-09T01:29:15.332Z,18.67
2023-02-09T01:31:43.863Z,16.60
2023-02-09T01:34:14.208Z,21.93
2023-02-09T01:36:42.721Z,18.73
2023-02-09T01:39:12.354Z,18.80
2023-02-09T01:41:42.504Z,22.17
2023-02-09T01:44:50.569Z,19.97
2023-02-09T01:47:21.370Z,18.07
2023-02-09T01:49:51.229Z,16.47
2023-02-09T01:52:22.586Z,18.83
2023-02-09T01:54:54.116Z,19.70
2023-02-09T01:57:26.375Z,19.10
2023-02-09T01:59:58.990Z,21.30
2023-02-09T02:02:31.951Z,17.30
2023-02-09T02:05:00.834Z,19.23
2023-02-09T02:07:32.468Z,15.63
2023-02-09T02:10:02.243Z,17.40
2023-02-09T02:12:30.785Z,15.07
2023-02-09T02:14:59.042Z,18.70
2023-02-09T02:17:43.381Z,16.63
2023-02-09T02:20:47.643Z,17.60
2023-02-09T02:23:29.251Z,14.67
2023-02-09T02:26:37.920Z,14.40
2023-02-09T02:29:37.724Z,15.83
2023-02-09T02:32:19.528Z,15.83
2023-02-09T02:34:54.297Z,17.20
2023-02-09T02:37:40.015Z,14.57
2023-02-09T02:40:19.834Z,13.50
2023-02-09T02:42:53.417Z,17.33
2023-02-09T02:45:33.858Z,12.37
2023-02-09T02:48:13.450Z,14.20
2023-02-09T02:50:48.325Z,14.40
2023-02-09T02:53:19.791Z,12.70
2023-02-09T02:55:50.278Z,16.73
2023-02-09T02:58:21.878Z,13.70
2023-02-09T03:00:53.231Z,12.33
2023-02-09T03:03:26.393Z,12.40
2023-02-09T03:05:55.206Z,10.83
2023-02-09T03:08:23.405Z,12.87
2023-02-09T03:10:52.184Z,11.03
2023-02-09T03:13:38.117Z,12.47
2023-02-09T03:16:28.360Z,13.37
2023-02-09T03:19:07.817Z,12.17
2023-02-09T03:21:46.403Z,12.03
2023-02-09T03:24:20.881Z,12.43
2023-02-09T03:26:53.069Z,11.87
2023-02-09T03:29:23.637Z,14.83
2023-02-09T03:31:52.771Z,16.57
2023-02-09T03:34:22.575Z,17.30
2023-02-09T03:36:53.269Z,15.57
2023-02-09T03:39:21.492Z,12.37
2023-02-09T03:41:49.718Z,15.97
2023-02-09T03:44:29.928Z,15.20
2023-02-09T03:47:00.011Z,11.23
2023-02-09T03:49:35.976Z,15.37
2023-02-09T03:52:05.098Z,11.60
2023-02-09T03:54:34.506Z,11.43
2023-02-09T03:57:02.916Z,11.93
2023-02-09T03:59:31.362Z,13.03
2023-02-09T04:02:00.338Z,12.07
2023-02-09T04:04:28.727Z,11.03
2023-02-09T04:06:58.839Z,13.63
2023-02-09T04:09:28.533Z,11.43
2023-02-09T04:11:57.021Z,19.90
2023-02-09T04:14:25.464Z,14.77
2023-02-09T04:16:53.976Z,12.33
2023-02-09T04:19:22.187Z,11.80
2023-02-09T04:21:50.386Z,13.10
2023-02-09T04:24:28.951Z,14.60
2023-02-09T04:26:57.222Z,13.00
2023-02-09T04:29:25.586Z,14.67
2023-02-09T04:31:53.995Z,13.50
2023-02-09T04:34:24.153Z,13.70
2023-02-09T04:36:52.607Z,14.63
2023-02-09T04:39:20.855Z,13.70
2023-02-09T04:41:50.499Z,12.27
2023-02-09T04:44:18.787Z,11.57
2023-02-09T04:46:47.019Z,12.53
2023-02-09T04:49:15.266Z,11.97
2023-02-09T04:51:43.455Z,14.00
2023-02-09T04:54:11.669Z,14.00
2023-02-09T04:56:39.938Z,13.23
2023-02-09T04:59:27.874Z,13.23
2023-02-09T05:01:56.061Z,13.90
2023-02-09T05:04:24.263Z,11.93
2023-02-09T05:06:52.473Z,15.47
2023-02-09T05:09:20.737Z,15.77
2023-02-09T05:11:49.020Z,16.10
2023-02-09T05:14:18.621Z,15.73
2023-02-09T05:16:46.934Z,14.07
2023-02-09T05:19:15.173Z,14.27
2023-02-09T05:21:43.440Z,16.13
2023-02-09T05:24:11.761Z,14.57
2023-02-09T05:26:40.008Z,13.97
2023-02-09T05:29:08.329Z,14.90
2023-02-09T05:31:38.252Z,12.77
2023-02-09T05:34:06.628Z,13.27
2023-02-09T05:36:34.814Z,15.27
2023-02-09T05:39:03.139Z,12.23
2023-02-09T05:41:48.720Z,13.97
2023-02-09T05:44:17.414Z,14.70
2023-02-09T05:46:47.088Z,16.43
2023-02-09T05:49:15.344Z,11.20
2023-02-09T05:51:43.573Z,13.37
2023-02-09T05:54:11.829Z,15.07
2023-02-09T05:56:40.796Z,14.13
2023-02-09T05:59:09.075Z,13.63
2023-02-09T06:01:37.408Z,14.27
2023-02-09T06:04:07.349Z,14.40
2023-02-09T06:06:35.559Z,14.87
2023-02-09T06:09:04.618Z,13.90
2023-02-09T06:11:33.054Z,14.47
2023-02-09T06:14:01.342Z,14.57
2023-02-09T06:16:29.570Z,18.00
2023-02-09T06:18:57.832Z,13.50
2023-02-09T06:21:27.470Z,15.33
2023-02-09T06:23:55.690Z,11.07
2023-02-09T06:26:23.884Z,14.17
2023-02-09T06:28:52.115Z,16.20
2023-02-09T06:31:20.419Z,15.50
2023-02-09T06:33:48.816Z,13.90
2023-02-09T06:36:17.073Z,13.90
2023-02-09T06:38:46.694Z,16.00
2023-02-09T06:41:14.960Z,16.07
2023-02-09T06:43:43.194Z,14.43
2023-02-09T06:46:13.497Z,16.87
2023-02-09T06:48:41.899Z,12.90
2023-02-09T06:51:10.984Z,16.77
2023-02-09T06:53:40.303Z,16.77
2023-02-09T06:56:10.827Z,18.47
2023-02-09T06:58:40.075Z,17.43
2023-02-09T07:01:11.478Z,15.40
2023-02-09T07:03:40.031Z,14.47
2023-02-09T07:06:11.871Z,12.50
2023-02-09T07:08:41.872Z,15.63
2023-02-09T07:11:13.760Z,15.30
2023-02-09T07:13:57.105Z,15.97
2023-02-09T07:16:25.631Z,13.40
2023-02-09T07:18:53.940Z,16.23
2023-02-09T07:21:22.671Z,18.73
2023-02-09T07:23:52.594Z,16.83
2023-02-09T07:26:22.300Z,16.53
2023-02-09T07:28:50.562Z,15.67
2023-02-09T07:31:18.988Z,20.00
2023-02-09T07:33:47.379Z,18.93
2023-02-09T07:36:19.304Z,14.63
2023-02-09T07:38:47.709Z,17.60
2023-02-09T07:41:18.788Z,19.07
2023-02-09T07:43:48.772Z,19.93
2023-02-09T07:46:18.893Z,17.40
2023-02-09T07:48:47.218Z,15.90
2023-02-09T07:51:16.038Z,15.50
2023-02-09T07:53:44.601Z,16.77
2023-02-09T07:56:12.881Z,18.13
2023-02-09T07:58:41.126Z,13.40
2023-02-09T08:01:13.964Z,14.20
2023-02-09T08:03:45.435Z,10.93
2023-02-09T08:06:19.798Z,14.50
2023-02-09T08:08:49.217Z,14.07
2023-02-09T08:11:21.256Z,13.40
2023-02-09T08:13:50.913Z,15.43
2023-02-09T08:16:23.890Z,13.20
2023-02-09T08:18:55.766Z,12.63
2023-02-09T08:21:24.895Z,14.27
2023-02-09T08:23:55.565Z,14.03
2023-02-09T08:26:24.109Z,14.87
2023-02-09T08:28:53.485Z,13.67
2023-02-09T08:31:23.276Z,18.30
2023-02-09T08:33:52.721Z,14.70
2023-02-09T08:36:21.457Z,15.17
2023-02-09T08:38:49.933Z,14.07
2023-02-09T08:41:19.597Z,16.53
2023-02-09T08:43:51.964Z,13.23
2023-02-09T08:46:22.132Z,19.17
2023-02-09T08:48:50.405Z,14.40
2023-02-09T08:51:19.113Z,11.43
2023-02-09T08:53:52.422Z,15.90
2023-02-09T08:56:21.893Z,16.47
2023-02-09T08:58:50.815Z,17.97
2023-02-09T09:01:19.213Z,14.70
2023-02-09T09:03:49.469Z,15.27
2023-02-09T09:06:17.825Z,14.33
2023-02-09T09:08:46.174Z,21.60
2023-02-09T09:11:14.912Z,16.67
2023-02-09T09:13:43.319Z,16.70
2023-02-09T09:16:15.795Z,16.80
2023-02-09T09:18:45.347Z,17.17
2023-02-09T09:21:17.062Z,17.27
2023-02-09T09:23:46.248Z,17.47
2023-02-09T09:26:14.777Z,16.27
2023-02-09T09:28:43.180Z,19.43
2023-02-09T09:31:12.929Z,15.57
2023-02-09T09:33:42.784Z,18.87
2023-02-09T09:36:11.889Z,18.10
2023-02-09T09:38:42.732Z,15.17
2023-02-09T09:41:22.138Z,16.07
2023-02-09T09:43:50.902Z,16.80
2023-02-09T09:46:22.170Z,16.23
2023-02-09T09:48:54.324Z,19.17
2023-02-09T09:51:31.937Z,20.37
2023-02-09T09:54:04.786Z,15.77
2023-02-09T09:56:34.216Z,18.07
2023-02-09T09:59:03.019Z,16.27
2023-02-09T10:01:33.607Z,18.57
2023-02-09T10:04:07.486Z,17.47
2023-02-09T10:06:35.722Z,18.20
2023-02-09T10:09:11.000Z,18.97
2023-02-09T10:11:47.002Z,16.80
2023-02-09T10:14:15.913Z,15.27
2023-02-09T10:16:46.025Z,19.13
2023-02-09T10:19:20.374Z,16.33
2023-02-09T10:21:49.611Z,16.93
2023-02-09T10:24:24.417Z,16.50
2023-02-09T10:27:08.816Z,24.07
2023-02-09T10:29:37.606Z,18.67
2023-02-09T10:32:09.251Z,22.43
2023-02-09T10:34:45.167Z,20.23
2023-02-09T10:37:21.373Z,19.30
2023-02-09T10:40:11.348Z,22.63
2023-02-09T10:42:42.940Z,21.90
2023-02-09T10:45:17.048Z,21.30
2023-02-09T10:47:59.095Z,18.07
2023-02-09T10:50:27.395Z,20.87
2023-02-09T10:52:59.570Z,19.73
2023-02-09T10:55:35.897Z,21.87
2023-02-09T10:58:26.886Z,19.40
2023-02-09T11:01:01.637Z,23.37
2023-02-09T11:03:30.338Z,20.17
2023-02-09T11:06:00.916Z,18.27
2023-02-09T11:08:40.244Z,22.13
2023-02-09T11:11:19.419Z,21.70
2023-02-09T11:13:47.883Z,24.00
2023-02-09T11:16:53.570Z,25.47
2023-02-09T11:19:56.271Z,20.77
2023-02-09T11:22:43.889Z,21.87
2023-02-09T11:25:22.965Z,23.33
2023-02-09T11:28:29.974Z,25.20
2023-02-09T11:31:18.564Z,19.33
2023-02-09T11:33:58.832Z,22.67
2023-02-09T11:36:41.887Z,20.80
2023-02-09T11:39:17.295Z,26.37
2023-02-09T11:42:07.686Z,22.53
2023-02-09T11:44:40.508Z,21.47
2023-02-09T11:47:15.450Z,20.73
2023-02-09T11:49:46.582Z,24.37
2023-02-09T11:52:19.421Z,22.13
2023-02-09T11:54:50.758Z,20.53
2023-02-09T11:57:27.727Z,22.73
2023-02-09T12:00:00.270Z,22.10
2023-02-09T12:02:46.144Z,19.97
2023-02-09T12:05:19.322Z,24.43
2023-02-09T12:08:04.670Z,24.77
2023-02-09T12:10:39.084Z,24.47
2023-02-09T12:13:19.882Z,27.43
2023-02-09T12:15:51.566Z,19.37
2023-02-09T12:18:23.850Z,25.90
2023-02-09T12:20:54.437Z,23.93
2023-02-09T12:23:31.835Z,22.80
2023-02-09T12:26:01.645Z,27.23
2023-02-09T12:28:42.300Z,28.70
2023-02-09T12:31:16.936Z,27.60
2023-02-09T12:34:28.698Z,25.53
2023-02-09T12:37:18.073Z,21.03
2023-02-09T12:40:18.382Z,27.50
2023-02-09T12:43:04.030Z,23.20
2023-02-09T12:45:36.005Z,25.43
2023-02-09T12:48:14.451Z,28.53
2023-02-09T12:50:53.984Z,25.30
2023-02-09T12:53:56.193Z,22.30
2023-02-09T12:56:35.199Z,25.83
2023-02-09T12:59:18.980Z,28.37
2023-02-09T13:02:16.846Z,26.57
2023-02-09T13:04:58.643Z,24.33
2023-02-09T13:07:41.047Z,31.40
2023-02-09T13:10:20.566Z,20.73
2023-02-09T13:12:55.379Z,24.20
2023-02-09T13:15:23.606Z,24.10
2023-02-09T13:18:07.854Z,27.17
2023-02-09T13:21:14.620Z,28.93
2023-02-09T13:23:56.484Z,25.90
2023-02-09T13:26:27.341Z,29.37
2023-02-09T13:29:19.917Z,28.40
2023-02-09T13:31:59.150Z,31.10
2023-02-09T13:34:35.794Z,24.17
2023-02-09T13:37:23.490Z,26.87
2023-02-09T13:40:00.815Z,26.33
2023-02-09T13:42:31.139Z,28.40
2023-02-09T13:45:00.906Z,26.47
2023-02-09T13:47:29.689Z,25.07
2023-02-09T13:50:00.133Z,26.20
2023-02-09T13:52:34.973Z,29.33
2023-02-09T13:55:19.178Z,27.20
2023-02-09T13:57:51.117Z,27.73
2023-02-09T14:00:27.044Z,24.50
2023-02-09T14:02:58.701Z,27.70
2023-02-09T14:05:35.365Z,25.90
2023-02-09T14:08:04.278Z,29.07
2023-02-09T14:10:35.635Z,25.67
2023-02-09T14:13:06.353Z,27.60
2023-02-09T14:15:56.329Z,27.60
2023-02-09T14:18:41.022Z,25.87
2023-02-09T14:21:24.269Z,25.70
2023-02-09T14:24:15.280Z,24.07
2023-02-09T14:26:48.864Z,26.57
2023-02-09T14:29:20.378Z,25.73
2023-02-09T14:31:50.308Z,29.03
2023-02-09T14:34:35.325Z,26.50
2023-02-09T14:37:25.451Z,27.20
2023-02-09T14:39:54.847Z,25.27
2023-02-09T14:42:25.184Z,24.43
2023-02-09T14:44:56.434Z,34.00
2023-02-09T14:47:42.150Z,24.87
2023-02-09T14:50:14.607Z,25.90
2023-02-09T14:52:47.195Z,42.87
2023-02-09T14:55:18.511Z,26.20
2023-02-09T14:57:48.534Z,28.00
2023-02-09T15:00:19.402Z,26.90
2023-02-09T15:02:48.349Z,30.43
2023-02-09T15:05:17.067Z,28.50
2023-02-09T15:07:48.282Z,33.77
2023-02-09T15:10:24.573Z,31.83
2023-02-09T15:12:54.893Z,35.53
2023-02-09T15:15:24.069Z,30.03
2023-02-09T15:17:54.266Z,29.13
2023-02-09T15:20:25.377Z,29.43
2023-02-09T15:22:53.864Z,28.67
2023-02-09T15:25:23.258Z,27.30
2023-02-09T15:27:54.840Z,29.23
2023-02-09T15:30:24.739Z,30.43
2023-02-09T15:32:53.565Z,28.47
2023-02-09T15:35:23.728Z,32.37
2023-02-09T15:37:55.600Z,28.90
2023-02-09T15:40:43.422Z,26.60
2023-02-09T15:43:32.476Z,28.97
2023-02-09T15:46:18.319Z,31.13
2023-02-09T15:48:46.689Z,27.80
2023-02-09T15:51:15.741Z,31.23
2023-02-09T15:53:45.181Z,27.23
2023-02-09T15:56:15.745Z,29.60
2023-02-09T15:58:48.219Z,29.07
2023-02-09T16:01:18.298Z,25.23
2023-02-09T16:03:46.846Z,29.83
2023-02-09T16:06:20.149Z,28.77
2023-02-09T16:08:51.473Z,31.07
2023-02-09T16:11:22.869Z,36.17
2023-02-09T16:13:52.627Z,29.47
2023-02-09T16:16:21.111Z,27.40
2023-02-09T16:18:49.363Z,29.37
2023-02-09T16:21:23.780Z,26.90
2023-02-09T16:23:53.677Z,32.80
2023-02-09T16:26:23.141Z,32.83
2023-02-09T16:28:54.049Z,31.97
2023-02-09T16:31:22.990Z,31.17
2023-02-09T16:33:51.746Z,33.23
2023-02-09T16:36:29.764Z,32.03
2023-02-09T16:38:58.126Z,35.50
2023-02-09T16:41:43.986Z,32.07
2023-02-09T16:44:18.467Z,32.70
2023-02-09T16:46:48.733Z,33.53
2023-02-09T16:49:33.105Z,35.97
2023-02-09T16:52:05.721Z,36.77
2023-02-09T16:54:40.921Z,33.00
2023-02-09T16:57:14.979Z,37.17
2023-02-09T16:59:46.066Z,31.50
2023-02-09T17:02:34.015Z,31.47
2023-02-09T17:05:03.794Z,36.17
2023-02-09T17:07:45.390Z,33.97
2023-02-09T17:10:23.367Z,32.80
2023-02-09T17:12:53.628Z,32.07
2023-02-09T17:15:31.230Z,34.57
2023-02-09T17:18:04.638Z,33.67
2023-02-09T17:20:38.549Z,36.73
2023-02-09T17:23:07.089Z,36.10
2023-02-09T17:25:38.467Z,35.97
2023-02-09T17:28:06.775Z,32.87
2023-02-09T17:30:40.089Z,38.03
2023-02-09T17:33:12.168Z,38.67
2023-02-09T17:38:32.858Z,32.43
2023-02-09T17:41:04.959Z,35.67
2023-02-09T17:43:33.418Z,36.17
2023-02-09T17:46:05.289Z,37.90
2023-02-09T17:48:33.626Z,35.70
2023-02-09T17:51:02.792Z,45.60
2023-02-09T17:53:35.391Z,35.70
2023-02-09T17:56:03.643Z,35.23
2023-02-09T17:58:31.934Z,39.83
2023-02-09T18:01:00.456Z,39.67
2023-02-09T18:03:32.774Z,41.33
2023-02-09T18:06:03.088Z,39.00
2023-02-09T18:08:31.319Z,38.53
2023-02-09T18:10:59.563Z,39.70
2023-02-09T18:13:30.047Z,38.47
2023-02-09T18:15:58.316Z,34.93
2023-02-09T18:18:26.732Z,36.37
2023-02-09T18:20:56.480Z,38.60
2023-02-09T18:23:24.834Z,37.70
2023-02-09T18:25:53.255Z,38.30
2023-02-09T18:28:21.608Z,39.87
2023-02-09T18:30:50.017Z,39.67
2023-02-09T18:33:18.907Z,38.63
2023-02-09T18:35:47.470Z,36.07
2023-02-09T18:38:17.369Z,39.27
2023-02-09T18:40:45.697Z,41.17
2023-02-09T18:43:15.745Z,36.40
2023-02-09T18:45:44.561Z,37.70
2023-02-09T18:48:13.387Z,39.93
2023-02-09T18:50:42.517Z,37.87
2023-02-09T18:53:13.138Z,34.37
2023-02-09T18:55:43.731Z,38.23
2023-02-09T18:58:14.585Z,34.83
2023-02-09T19:00:43.151Z,41.67
2023-02-09T19:03:13.163Z,41.17
2023-02-09T19:05:42.573Z,40.60
2023-02-09T19:08:11.037Z,36.13
2023-02-09T19:10:40.952Z,36.63
2023-02-09T19:13:11.128Z,39.67
2023-02-09T19:15:40.115Z,38.40
2023-02-09T19:18:08.453Z,44.20
2023-02-09T19:20:36.993Z,37.63
2023-02-09T19:23:07.642Z,39.47
2023-02-09T19:25:36.229Z,36.60
2023-02-09T19:28:04.546Z,36.43
2023-02-09T19:30:34.395Z,36.83
2023-02-09T19:33:02.716Z,36.30
2023-02-09T19:35:31.960Z,39.93
2023-02-09T19:38:00.547Z,41.90
2023-02-09T19:40:35.582Z,40.00
2023-02-09T19:43:04.606Z,35.63
2023-02-09T19:45:37.783Z,39.47
2023-02-09T19:48:07.392Z,39.87
2023-02-09T19:50:36.865Z,40.17
2023-02-09T19:53:07.011Z,39.57
2023-02-09T19:55:35.937Z,36.20
2023-02-09T19:58:04.205Z,41.67
2023-02-09T20:00:33.978Z,39.13
2023-02-09T20:03:02.337Z,41.63
2023-02-09T20:05:30.606Z,39.47
2023-02-09T20:07:59.065Z,41.03
2023-02-09T20:10:27.401Z,38.13
2023-02-09T20:12:55.644Z,42.47
2023-02-09T20:15:23.944Z,41.03
2023-02-09T20:17:53.732Z,44.60
2023-02-09T20:20:21.970Z,49.17
2023-02-09T20:22:51.293Z,42.47
2023-02-09T20:25:25.603Z,41.47
2023-02-09T20:27:53.943Z,41.60
2023-02-09T20:30:22.271Z,41.40
2023-02-09T20:32:54.832Z,39.17
2023-02-09T20:35:23.239Z,44.83
2023-02-09T20:37:52.856Z,45.77
2023-02-09T20:40:21.698Z,47.93
2023-02-09T20:43:07.610Z,42.07
2023-02-09T20:45:55.552Z,44.47
2023-02-09T20:48:25.232Z,42.93
2023-02-09T20:50:53.465Z,43.40
2023-02-09T20:53:22.460Z,45.90
2023-02-09T20:55:51.005Z,38.27
2023-02-09T20:58:20.137Z,43.40
2023-02-09T21:00:48.879Z,42.73
2023-02-09T21:03:17.485Z,39.60
2023-02-09T21:05:47.162Z,41.57
2023-02-09T21:08:15.548Z,45.40
2023-02-09T21:10:43.827Z,45.77
2023-02-09T21:13:12.883Z,42.43
2023-02-09T21:15:42.818Z,41.07
2023-02-09T21:18:11.236Z,42.87
2023-02-09T21:20:40.325Z,43.03
2023-02-09T21:23:09.984Z,45.23
2023-02-09T21:25:38.422Z,45.00
2023-02-09T21:28:06.935Z,44.43
2023-02-09T21:30:35.215Z,43.17
2023-02-09T21:33:03.476Z,45.50
2023-02-09T21:35:31.924Z,45.40
2023-02-09T21:38:00.584Z,42.23
2023-02-09T21:40:30.176Z,46.40
2023-02-09T21:42:58.417Z,48.57
2023-02-09T21:45:27.409Z,50.30
2023-02-09T21:47:55.816Z,48.77
2023-02-09T21:50:24.132Z,50.80
2023-02-09T21:52:54.389Z,47.70
2023-02-09T21:55:23.068Z,49.53
2023-02-09T21:57:52.767Z,45.97
2023-02-09T22:00:21.457Z,50.30
2023-02-09T22:02:53.267Z,45.90
2023-02-09T22:05:21.583Z,50.40
2023-02-09T22:07:51.047Z,49.33
2023-02-09T22:10:19.483Z,44.90
2023-02-09T22:12:48.039Z,45.27
2023-02-09T22:15:19.167Z,41.77
2023-02-09T22:17:48.369Z,47.67
2023-02-09T22:20:16.868Z,47.17
2023-02-09T22:22:46.151Z,48.00
2023-02-09T22:25:14.445Z,42.10
2023-02-09T22:27:42.865Z,53.07
2023-02-09T22:30:12.177Z,44.43
2023-02-09T22:32:42.056Z,45.17
2023-02-09T22:35:10.344Z,53.20
2023-02-09T22:37:39.412Z,46.13
2023-02-09T22:40:08.401Z,48.77
2023-02-09T22:42:36.718Z,49.37
2023-02-09T22:45:05.910Z,48.03
2023-02-09T22:47:35.324Z,45.37
2023-02-09T22:50:05.376Z,47.07
2023-02-09T22:52:33.739Z,45.00
2023-02-09T22:55:01.979Z,50.20
2023-02-09T22:57:30.220Z,49.87
2023-02-09T22:59:58.565Z,52.50
2023-02-09T23:02:26.876Z,57.00
2023-02-09T23:04:55.124Z,50.50
2023-02-09T23:07:25.469Z,52.00
2023-02-09T23:09:53.857Z,50.90
2023-02-09T23:12:22.078Z,54.60
2023-02-09T23:14:50.352Z,55.70
2023-02-09T23:17:18.612Z,52.03
2023-02-09T23:19:46.950Z,59.47
2023-02-09T23:22:15.241Z,54.87
2023-02-09T23:24:45.182Z,46.47
2023-02-09T23:27:13.414Z,54.70
2023-02-09T23:29:41.769Z,55.07
2023-02-09T23:32:10.036Z,56.30
2023-02-09T23:34:39.143Z,50.90
2023-02-09T23:37:18.103Z,54.67
2023-02-09T23:39:57.003Z,54.70
2023-02-09T23:42:25.327Z,57.43
2023-02-09T23:44:53.612Z,54.40
2023-02-09T23:47:22.154Z,56.97
2023-02-09T23:49:50.750Z,56.57
2023-02-09T23:52:19.022Z,50.43
2023-02-09T23:54:47.243Z,52.47
2023-02-09T23:57:17.949Z,56.00
2023-02-09T23:59:46.210Z,57.10
